CPX789 Details

Departure: Changi International Airport (WSSS)
Arrival: Incheon International Airport (RKSI)
Route: TOMAN2A TOMAN L625 MEVIN B462 MJC IKEMA Y62 YURIX Y27 RUSAR Y579 CJU B576 OLMEN OLMEN1P


Current Weather Information
WSSS 221130Z 09006KT 040V100 9999 FEW018 BKN300 29/24 Q1008 NOSIG
RKSI 221130Z 31013KT CAVOK 05/M10 Q1022 NOSIG